Time;durP1;ratioP1;P1;durP2;ratioP2;P2;SDS_P1;SDS_P2;PMS_P1;PMS_P2;Temp;Humidity;BMP_temperature;BMP_pressure;BME280_temperature;BME280_humidity;BME280_pressure;Samples;Min_cycle;Max_cycle;Signal;HPM_P1;HPM_P2
2022/01/05 00:01:10;;;;;;;0.50;0.40;;;;;;;10.14;80.87;93872.53;4339192;32;20173;-59
2022/01/05 00:03:40;;;;;;;1.20;0.30;;;;;;;10.06;84.67;93878.66;4362388;32;20181;-59
2022/01/05 00:06:05;;;;;;;0.70;0.30;;;;;;;9.99;84.41;93875.75;4365937;32;20381;-59
2022/01/05 00:08:32;;;;;;;0.87;0.57;;;;;;;10.07;83.71;93887.38;4368469;32;20192;-61
2022/01/05 00:10:57;;;;;;;0.40;0.40;;;;;;;9.88;83.74;93890.50;4364362;32;20211;-60
2022/01/05 00:13:24;;;;;;;1.27;0.50;;;;;;;10.00;84.38;93901.16;4333033;32;20177;-60
2022/01/05 00:15:49;;;;;;;0.30;0.30;;;;;;;9.95;80.66;93907.44;4359779;32;20231;-60
2022/01/05 00:18:15;;;;;;;0.23;0.23;;;;;;;9.97;80.52;93915.06;4359394;32;20246;-59
2022/01/05 00:20:43;;;;;;;0.70;0.40;;;;;;;9.86;80.81;93917.31;4361697;32;20200;-59
2022/01/05 00:23:08;;;;;;;0.40;0.40;;;;;;;9.77;82.80;93921.13;4356962;32;20264;-59
2022/01/05 00:25:34;;;;;;;0.33;0.33;;;;;;;9.83;85.53;93925.13;4347048;32;20219;-59
2022/01/05 00:28:02;;;;;;;0.50;0.50;;;;;;;9.76;81.57;93930.16;4353205;32;20181;-60
2022/01/05 00:30:31;;;;;;;0.30;0.30;;;;;;;9.71;83.78;93930.34;4335984;32;20190;-60
2022/01/05 00:32:58;;;;;;;0.80;0.30;;;;;;;9.59;83.36;93931.81;4354791;32;20198;-59
2022/01/05 00:35:23;;;;;;;0.30;0.30;;;;;;;9.54;84.53;93933.87;4366972;32;20180;-59
2022/01/05 00:37:51;;;;;;;0.43;0.40;;;;;;;9.40;84.18;93942.03;4366759;32;20330;-60
2022/01/05 00:40:18;;;;;;;0.47;0.40;;;;;;;9.19;83.81;93941.22;4353390;32;20189;-64
2022/01/05 00:42:43;;;;;;;0.33;0.33;;;;;;;8.90;79.59;93953.31;4349231;32;20284;-59
2022/01/05 00:45:10;;;;;;;0.30;0.30;;;;;;;8.71;82.83;93955.53;4353032;32;20284;-59
2022/01/05 00:47:36;;;;;;;0.30;0.30;;;;;;;8.53;81.12;93954.00;4360518;32;20279;-60
2022/01/05 00:50:03;;;;;;;0.20;0.20;;;;;;;8.37;82.42;93958.22;4294949;32;20370;-60
2022/01/05 00:52:29;;;;;;;0.30;0.30;;;;;;;8.09;82.70;93977.03;4319433;32;20278;-59
2022/01/05 00:54:56;;;;;;;0.20;0.20;;;;;;;8.31;88.59;93978.72;4348483;32;20277;-60
2022/01/05 00:57:23;;;;;;;0.23;0.23;;;;;;;8.17;86.13;93983.38;4347043;32;20372;-59
2022/01/05 00:59:50;;;;;;;0.20;0.20;;;;;;;8.18;81.95;93995.50;4328274;32;20278;-63
2022/01/05 01:02:15;;;;;;;0.27;0.27;;;;;;;7.52;89.20;93994.78;4347785;32;20323;-63
2022/01/05 01:04:40;;;;;;;2.57;0.20;;;;;;;7.17;85.70;93984.12;4362368;32;20329;-61
2022/01/05 01:07:06;;;;;;;0.10;0.10;;;;;;;7.21;87.03;93982.44;4340274;32;20258;-61
2022/01/05 01:09:32;;;;;;;0.20;0.13;;;;;;;7.29;87.87;93991.44;4354295;32;20180;-61
2022/01/05 01:11:59;;;;;;;0.10;0.10;;;;;;;7.50;89.24;93981.88;4347817;32;20234;-61
2022/01/05 01:14:26;;;;;;;0.20;0.17;;;;;;;7.62;87.73;93993.72;4355028;32;20320;-59
2022/01/05 01:16:56;;;;;;;0.10;0.10;;;;;;;8.13;88.62;93988.50;4347435;32;20300;-59
2022/01/05 01:19:23;;;;;;;0.40;0.30;;;;;;;8.09;85.42;93992.09;4325145;32;20273;-59
2022/01/05 01:21:50;;;;;;;0.10;0.10;;;;;;;8.36;87.94;93991.03;4356888;32;20433;-59
2022/01/05 01:24:18;;;;;;;1.87;0.20;;;;;;;8.31;83.81;94001.75;4362496;32;20277;-60
2022/01/05 01:26:44;;;;;;;1.33;0.20;;;;;;;8.34;87.05;94007.19;4354507;32;20276;-59
2022/01/05 01:29:10;;;;;;;0.30;0.20;;;;;;;8.11;85.31;94019.72;4359975;32;20315;-59
2022/01/05 01:31:37;;;;;;;0.33;0.23;;;;;;;8.15;87.93;94020.66;4346116;32;20335;-59
2022/01/05 01:34:07;;;;;;;0.13;0.13;;;;;;;8.25;87.32;94025.66;4340027;32;20210;-59
2022/01/05 01:36:34;;;;;;;0.13;0.13;;;;;;;8.27;84.98;94020.84;4336609;32;20269;-60
2022/01/05 01:39:01;;;;;;;0.90;0.10;;;;;;;8.57;88.71;94023.66;4338684;32;20297;-60
2022/01/05 01:41:26;;;;;;;0.30;0.03;;;;;;;8.51;85.33;94024.91;4334594;32;20339;-61
2022/01/05 01:43:53;;;;;;;0.10;0.10;;;;;;;8.19;83.30;94028.75;4349958;32;20281;-60
2022/01/05 01:46:20;;;;;;;0.50;0.17;;;;;;;8.27;83.59;94020.84;4337076;32;20204;-59
2022/01/05 01:49:08;;;;;;;0.30;0.10;;;;;;;8.24;83.95;94034.66;4331688;32;20335;-60
2022/01/05 01:51:35;;;;;;;0.90;0.10;;;;;;;8.21;82.94;94034.50;4341067;32;20262;-59
2022/01/05 01:54:03;;;;;;;0.10;0.10;;;;;;;8.11;80.76;94027.66;4329263;32;20289;-60
2022/01/05 01:56:34;;;;;;;2.40;0.20;;;;;;;7.76;85.12;94026.03;4329873;32;20305;-61
2022/01/05 01:59:01;;;;;;;0.10;0.10;;;;;;;7.82;86.46;94020.31;4356878;32;20664;-61
2022/01/05 02:01:30;;;;;;;0.10;0.10;;;;;;;7.61;81.68;94024.63;4334288;32;20336;-62
2022/01/05 02:03:56;;;;;;;0.10;0.10;;;;;;;7.49;83.46;94022.53;4325769;32;20273;-61
2022/01/05 02:06:23;;;;;;;0.03;0.03;;;;;;;7.48;84.77;94022.88;4335153;32;20284;-61
2022/01/05 02:08:49;;;;;;;1.93;0.20;;;;;;;7.08;85.36;94017.56;4315619;32;20181;-61
2022/01/05 02:11:14;;;;;;;1.70;0.20;;;;;;;7.74;90.99;94023.72;4329775;32;20440;-61
2022/01/05 02:13:44;;;;;;;0.10;0.10;;;;;;;7.72;87.95;94030.38;4350106;32;20288;-61
2022/01/05 02:16:13;;;;;;;0.10;0.10;;;;;;;7.50;82.67;94034.66;4335481;32;20193;-62
2022/01/05 02:21:09;;;;;;;0.20;0.20;;;;;;;7.98;88.06;94025.16;4348873;32;20269;-61
2022/01/05 02:23:36;;;;;;;0.10;0.10;;;;;;;7.50;83.38;94024.09;4313157;32;20173;-61
2022/01/05 02:26:28;;;;;;;0.30;0.30;;;;;;;7.34;84.05;94035.38;4299570;32;20296;-61
2022/01/05 02:28:54;;;;;;;0.20;0.20;;;;;;;7.37;87.34;94035.53;4327850;32;20312;-62
2022/01/05 02:31:22;;;;;;;0.10;0.10;;;;;;;7.40;87.71;94034.16;4350086;32;20295;-59
2022/01/05 02:33:48;;;;;;;0.27;0.27;;;;;;;7.70;85.58;94021.97;4354698;32;20177;-59
2022/01/05 02:36:18;;;;;;;0.30;0.20;;;;;;;7.35;83.32;94021.88;4371368;32;20360;-59
2022/01/05 02:38:50;;;;;;;0.93;0.17;;;;;;;7.26;83.46;94029.00;4354750;32;20181;-59
2022/01/05 02:41:16;;;;;;;0.03;0.03;;;;;;;6.99;85.33;94024.66;4350950;32;20318;-64
2022/01/05 02:43:44;;;;;;;1.03;0.10;;;;;;;6.94;86.69;94024.00;4346023;32;20277;-60
2022/01/05 02:46:12;;;;;;;0.17;0.10;;;;;;;7.09;89.84;94023.63;4312864;32;20196;-59
2022/01/05 02:48:38;;;;;;;0.30;0.20;;;;;;;7.18;87.37;94038.41;4320269;32;20336;-59
2022/01/05 02:51:08;;;;;;;0.10;0.10;;;;;;;7.02;88.99;94044.38;4356166;32;20292;-59
2022/01/05 02:53:34;;;;;;;0.10;0.10;;;;;;;7.22;87.59;94035.94;4351972;32;20300;-60
2022/01/05 02:56:01;;;;;;;0.10;0.10;;;;;;;7.02;86.83;94028.56;4350233;32;20300;-59
2022/01/05 02:58:31;;;;;;;0.10;0.10;;;;;;;7.33;89.17;94025.91;4356724;32;20181;-60
2022/01/05 03:00:57;;;;;;;1.40;0.30;;;;;;;7.56;88.26;94028.16;4356066;32;20286;-59
2022/01/05 03:03:23;;;;;;;0.13;0.13;;;;;;;7.33;83.72;94029.31;4345397;32;20294;-59
2022/01/05 03:05:49;;;;;;;0.10;0.10;;;;;;;7.77;89.22;94027.59;4344652;32;20185;-61
2022/01/05 03:08:16;;;;;;;0.00;0.00;;;;;;;7.81;87.31;94024.03;4342236;32;20331;-59
2022/01/05 03:10:42;;;;;;;0.03;0.03;;;;;;;7.77;84.84;94027.59;4335072;32;20300;-60
2022/01/05 03:13:09;;;;;;;0.10;0.10;;;;;;;7.62;84.47;94023.53;4350596;32;20319;-60
2022/01/05 03:15:35;;;;;;;0.20;0.20;;;;;;;7.55;82.66;94015.28;4320960;32;20282;-60
2022/01/05 03:18:04;;;;;;;0.83;0.10;;;;;;;7.73;87.58;94031.94;4351603;32;20285;-60
2022/01/05 03:20:34;;;;;;;0.10;0.10;;;;;;;7.58;86.20;94033.91;4344013;32;20274;-60
2022/01/05 03:23:04;;;;;;;0.40;0.20;;;;;;;7.89;89.01;94041.00;4343765;32;20312;-60
2022/01/05 03:25:30;;;;;;;0.10;0.10;;;;;;;7.69;84.00;94041.56;4357320;32;20304;-59
2022/01/05 03:27:57;;;;;;;0.10;0.10;;;;;;;7.52;87.57;94037.00;4357464;32;20273;-59
2022/01/05 03:30:26;;;;;;;0.10;0.10;;;;;;;7.40;83.02;94040.22;4351555;32;20176;-59
2022/01/05 03:33:08;;;;;;;0.10;0.10;;;;;;;7.02;82.65;94029.34;4352734;32;20274;-60
2022/01/05 03:35:58;;;;;;;1.40;0.10;;;;;;;7.29;89.28;94038.91;4340010;32;20288;-60
2022/01/05 03:38:24;;;;;;;0.10;0.10;;;;;;;7.59;86.51;94037.34;4339475;32;20281;-60
2022/01/05 03:40:49;;;;;;;0.10;0.10;;;;;;;7.09;84.53;94049.97;4334033;32;20356;-60
2022/01/05 03:43:17;;;;;;;0.07;0.07;;;;;;;7.06;83.60;94050.63;4357022;32;20189;-60
2022/01/05 03:45:43;;;;;;;0.10;0.10;;;;;;;6.88;86.43;94039.16;4334223;32;20200;-60
2022/01/05 03:48:13;;;;;;;1.13;0.30;;;;;;;6.67;86.66;94040.72;4335183;32;20288;-60
2022/01/05 03:50:43;;;;;;;0.20;0.20;;;;;;;6.97;90.06;94044.50;4329378;32;20325;-60
2022/01/05 03:53:13;;;;;;;0.57;0.20;;;;;;;7.31;88.60;94036.75;4351580;32;20265;-60
2022/01/05 03:55:42;;;;;;;0.67;0.20;;;;;;;7.45;89.54;94042.72;4349378;32;20368;-60
2022/01/05 03:58:09;;;;;;;0.37;0.10;;;;;;;7.26;87.00;94044.81;4331978;32;20276;-60
2022/01/05 04:00:39;;;;;;;0.20;0.20;;;;;;;7.40;87.48;94045.50;4310654;32;20337;-60
2022/01/05 04:03:06;;;;;;;0.20;0.20;;;;;;;7.28;85.54;94053.19;4319837;32;20382;-60
2022/01/05 04:05:32;;;;;;;0.57;0.20;;;;;;;7.29;86.21;94059.22;4340104;32;20272;-60
2022/01/05 04:08:00;;;;;;;0.20;0.10;;;;;;;7.10;88.47;94062.09;4350910;32;20197;-60
2022/01/05 04:10:26;;;;;;;0.20;0.10;;;;;;;7.25;87.69;94053.81;4326505;32;20364;-60
2022/01/05 04:12:53;;;;;;;0.10;0.10;;;;;;;7.03;84.93;94048.56;4355953;32;20288;-60
2022/01/05 04:15:21;;;;;;;0.03;0.00;;;;;;;6.95;85.58;94054.56;4350060;32;20280;-60
2022/01/05 04:17:46;;;;;;;0.20;0.20;;;;;;;6.86;87.14;94051.88;4354911;32;20274;-60
2022/01/05 04:20:17;;;;;;;0.10;0.10;;;;;;;6.90;85.65;94058.88;4356639;32;20292;-60
2022/01/05 04:22:43;;;;;;;0.20;0.10;;;;;;;6.53;87.97;94048.72;4360067;32;20200;-59
2022/01/05 04:25:09;;;;;;;0.10;0.10;;;;;;;6.93;89.51;94054.09;4361349;32;20272;-60
2022/01/05 04:27:35;;;;;;;0.30;0.10;;;;;;;6.82;86.88;94051.72;4362255;32;20277;-59
2022/01/05 04:30:05;;;;;;;0.10;0.10;;;;;;;7.28;89.27;94052.41;4337854;32;20211;-60
2022/01/05 04:32:30;;;;;;;0.00;0.00;;;;;;;7.45;87.78;94058.56;4346852;32;20321;-60
2022/01/05 04:34:57;;;;;;;1.07;0.10;;;;;;;7.39;85.06;94051.84;4331559;32;20323;-60
2022/01/05 04:37:23;;;;;;;0.10;0.10;;;;;;;7.61;88.97;94042.31;4367296;32;20184;-60
2022/01/05 04:39:52;;;;;;;0.13;0.03;;;;;;;7.38;86.07;94050.28;4335454;32;20383;-60
2022/01/05 04:42:19;;;;;;;0.13;0.10;;;;;;;7.38;86.74;94052.16;4342226;32;20185;-60
2022/01/05 04:44:48;;;;;;;0.00;0.00;;;;;;;7.40;87.92;94053.41;4349484;32;20284;-60
2022/01/05 04:47:15;;;;;;;0.30;0.10;;;;;;;7.54;84.63;94048.78;4322458;32;20319;-60
2022/01/05 04:49:43;;;;;;;0.67;0.03;;;;;;;7.50;87.14;94047.84;4350113;32;20303;-61
2022/01/05 04:52:09;;;;;;;1.23;0.63;;;;;;;7.46;89.10;94035.59;4363398;32;20292;-60
2022/01/05 04:54:36;;;;;;;0.40;0.30;;;;;;;7.85;89.54;94042.69;4344517;32;20293;-60
2022/01/05 04:57:05;;;;;;;0.20;0.10;;;;;;;7.56;86.81;94033.44;4364577;32;20264;-60
2022/01/05 04:59:33;;;;;;;1.13;0.10;;;;;;;7.95;88.05;94029.19;4359519;32;20288;-60
2022/01/05 05:02:00;;;;;;;0.20;0.10;;;;;;;8.05;88.00;94022.84;4356615;32;20323;-60
2022/01/05 05:04:25;;;;;;;1.20;0.10;;;;;;;8.07;85.81;94026.72;4350219;32;20369;-60
2022/01/05 05:06:51;;;;;;;0.10;0.10;;;;;;;7.93;82.86;94028.72;4346924;32;20193;-59
2022/01/05 05:09:18;;;;;;;0.10;0.10;;;;;;;7.50;80.19;94039.94;4367816;32;20280;-63
2022/01/05 05:11:45;;;;;;;0.10;0.10;;;;;;;7.25;83.99;94040.63;4343439;32;20189;-60
2022/01/05 05:14:11;;;;;;;0.07;0.07;;;;;;;7.21;83.80;94042.31;4342874;32;20366;-60
2022/01/05 05:16:38;;;;;;;0.10;0.10;;;;;;;6.74;86.17;94036.62;4322344;32;20334;-60
2022/01/05 05:19:06;;;;;;;0.10;0.10;;;;;;;6.72;86.12;94044.03;4344194;32;20268;-60
2022/01/05 05:21:33;;;;;;;0.10;0.10;;;;;;;6.94;86.17;94045.09;4339173;32;20301;-59
2022/01/05 05:24:00;;;;;;;0.10;0.00;;;;;;;6.78;85.64;94044.69;4331069;32;20277;-59
2022/01/05 05:26:25;;;;;;;0.10;0.10;;;;;;;6.77;87.69;94049.19;4309321;32;20299;-60
2022/01/05 05:28:52;;;;;;;0.10;0.10;;;;;;;6.88;89.31;94047.84;4330978;32;20277;-60
2022/01/05 05:31:17;;;;;;;0.10;0.10;;;;;;;6.73;86.08;94042.19;4365642;32;20189;-60
2022/01/05 05:33:43;;;;;;;0.00;0.00;;;;;;;7.10;89.24;94046.28;4360052;32;20299;-59
2022/01/05 05:36:10;;;;;;;0.10;0.10;;;;;;;6.99;84.16;94050.25;4334382;32;20284;-60
2022/01/05 05:38:38;;;;;;;0.00;0.00;;;;;;;6.54;86.01;94050.25;4344931;32;22021;-59
2022/01/05 05:41:07;;;;;;;0.30;0.10;;;;;;;6.63;88.95;94055.63;4347605;32;20281;-59
2022/01/05 05:43:33;;;;;;;0.10;0.10;;;;;;;6.77;87.21;94048.41;4360522;32;20292;-60
2022/01/05 05:46:00;;;;;;;0.00;0.00;;;;;;;6.88;87.96;94052.34;4361244;32;20293;-60
2022/01/05 05:48:27;;;;;;;1.13;0.20;;;;;;;6.96;89.36;94050.84;4354009;32;20292;-60
2022/01/05 05:50:54;;;;;;;1.53;0.20;;;;;;;7.43;88.81;94044.88;4357809;32;20327;-60
2022/01/05 05:53:20;;;;;;;0.10;0.10;;;;;;;7.83;88.35;94047.50;4341289;32;20328;-60
2022/01/05 05:55:45;;;;;;;0.20;0.10;;;;;;;7.73;82.86;94047.75;4356912;32;20297;-64
2022/01/05 05:58:11;;;;;;;0.27;0.10;;;;;;;8.13;86.66;94057.16;4362323;32;20181;-60
2022/01/05 06:00:38;;;;;;;0.20;0.10;;;;;;;7.67;83.78;94057.72;4360990;32;20291;-59
2022/01/05 06:03:07;;;;;;;0.10;0.10;;;;;;;7.65;85.38;94061.72;4347845;32;20178;-60
2022/01/05 06:05:34;;;;;;;0.20;0.20;;;;;;;7.50;84.10;94063.69;4357985;32;20382;-60
2022/01/05 06:08:04;;;;;;;0.10;0.00;;;;;;;7.20;88.41;94067.12;4370415;32;20265;-60
2022/01/05 06:10:34;;;;;;;0.10;0.10;;;;;;;7.22;86.83;94059.69;4339007;32;20270;-60
2022/01/05 06:13:01;;;;;;;0.30;0.10;;;;;;;7.56;85.04;94059.81;4350405;32;20284;-59
2022/01/05 06:15:28;;;;;;;1.13;0.37;;;;;;;7.24;85.49;94062.81;4349212;32;20274;-59
2022/01/05 06:17:56;;;;;;;0.00;0.00;;;;;;;7.04;84.57;94053.56;4345842;32;20277;-59
2022/01/05 06:20:22;;;;;;;0.10;0.10;;;;;;;7.03;84.56;94059.12;4352412;32;20290;-60
2022/01/05 06:22:52;;;;;;;0.30;0.10;;;;;;;7.23;87.11;94066.53;4364611;32;20270;-59
2022/01/05 06:25:17;;;;;;;0.23;0.20;;;;;;;7.49;88.46;94062.13;4327635;32;20284;-59
2022/01/05 06:27:44;;;;;;;0.00;0.00;;;;;;;7.68;86.71;94072.47;4359095;32;20307;-60
2022/01/05 06:30:13;;;;;;;0.10;0.10;;;;;;;7.44;84.21;94072.06;4349832;32;20265;-59
2022/01/05 06:32:46;;;;;;;0.00;0.00;;;;;;;7.42;85.21;94069.72;4337137;32;20278;-59
2022/01/05 06:35:14;;;;;;;0.17;0.17;;;;;;;7.35;82.57;94060.66;4339559;32;20340;-60
2022/01/05 06:37:42;;;;;;;0.10;0.03;;;;;;;7.48;88.78;94071.13;4341900;32;20369;-60
2022/01/05 06:40:10;;;;;;;1.17;0.20;;;;;;;7.76;88.92;94068.28;4304766;32;20346;-60
2022/01/05 06:42:35;;;;;;;1.60;0.10;;;;;;;7.75;85.90;94061.44;4345471;32;20328;-59
2022/01/05 06:45:03;;;;;;;1.03;0.10;;;;;;;7.70;82.78;94064.22;4333846;32;20329;-60
2022/01/05 06:47:30;;;;;;;0.57;0.10;;;;;;;7.75;87.73;94064.06;4303487;33;20185;-59
2022/01/05 06:49:56;;;;;;;1.73;0.20;;;;;;;7.99;85.87;94076.88;4310560;32;20323;-60
2022/01/05 06:52:21;;;;;;;0.10;0.10;;;;;;;7.92;86.68;94072.03;4307725;33;20270;-59
2022/01/05 06:54:46;;;;;;;0.40;0.10;;;;;;;7.59;82.38;94075.06;4315381;32;20216;-63
2022/01/05 06:57:13;;;;;;;0.10;0.10;;;;;;;7.37;86.49;94088.31;4309929;32;20185;-60
2022/01/05 06:59:39;;;;;;;1.13;0.00;;;;;;;7.43;87.39;94100.28;4333116;32;20185;-58
2022/01/05 07:02:06;;;;;;;6.70;0.87;;;;;;;7.19;85.61;94092.72;4331778;32;20299;-59
2022/01/05 07:04:32;;;;;;;2.20;0.13;;;;;;;7.08;87.46;94088.75;4340481;32;20182;-59
2022/01/05 07:06:59;;;;;;;0.30;0.20;;;;;;;7.45;89.40;94079.66;4311600;32;20443;-59
2022/01/05 07:09:25;;;;;;;0.10;0.10;;;;;;;7.61;86.03;94095.88;4315977;32;20294;-59
2022/01/05 07:11:51;;;;;;;3.10;0.17;;;;;;;7.11;84.75;94090.00;4331405;32;20228;-59
2022/01/05 07:14:20;;;;;;;0.17;0.17;;;;;;;7.13;84.54;94087.84;4321797;32;20305;-60
2022/01/05 07:16:47;;;;;;;0.10;0.10;;;;;;;6.70;86.10;94091.00;4332416;32;20206;-59
2022/01/05 07:19:14;;;;;;;0.10;0.10;;;;;;;6.76;86.35;94104.84;4313664;33;20301;-59
2022/01/05 07:21:40;;;;;;;0.17;0.17;;;;;;;6.86;86.89;94115.13;4319138;32;20274;-59
2022/01/05 07:24:12;;;;;;;0.63;0.23;;;;;;;7.08;87.00;94109.06;4344210;32;21657;-60
2022/01/05 07:26:42;;;;;;;0.60;0.60;;;;;;;7.02;88.36;94097.12;4343793;32;20294;-60
2022/01/05 07:29:09;;;;;;;0.30;0.30;;;;;;;7.10;88.88;94104.28;4329218;32;20372;-60
2022/01/05 07:31:39;;;;;;;0.10;0.10;;;;;;;7.14;87.67;94111.28;4346978;32;20299;-59
2022/01/05 07:34:04;;;;;;;1.57;0.40;;;;;;;7.12;87.16;94107.41;4330684;32;20276;-59
2022/01/05 07:36:32;;;;;;;0.20;0.17;;;;;;;7.03;86.72;94096.03;4351510;32;20335;-59
2022/01/05 07:38:59;;;;;;;0.20;0.10;;;;;;;7.13;88.70;94112.38;4345120;32;20189;-59
2022/01/05 07:41:26;;;;;;;0.10;0.10;;;;;;;7.06;87.13;94119.94;4343497;32;20273;-64
2022/01/05 07:43:54;;;;;;;0.27;0.10;;;;;;;6.50;85.95;94123.84;4365549;32;20289;-64
2022/01/05 07:46:20;;;;;;;0.10;0.10;;;;;;;6.61;85.71;94123.63;4354463;32;20384;-64
2022/01/05 07:48:47;;;;;;;0.13;0.10;;;;;;;5.82;88.40;94139.69;4357374;32;20289;-64
2022/01/05 07:51:14;;;;;;;0.10;0.10;;;;;;;5.96;88.08;94135.25;4340470;32;20288;-64
2022/01/05 07:53:41;;;;;;;0.10;0.10;;;;;;;5.79;89.75;94135.03;4335152;32;20435;-64
2022/01/05 07:56:09;;;;;;;0.10;0.10;;;;;;;5.70;90.12;94134.13;4345426;32;20282;-64
2022/01/05 07:58:36;;;;;;;0.87;0.10;;;;;;;5.95;89.85;94138.94;4323518;32;20335;-64
2022/01/05 08:01:06;;;;;;;0.20;0.10;;;;;;;5.73;89.75;94146.72;4329096;32;20269;-64
2022/01/05 08:03:33;;;;;;;0.10;0.10;;;;;;;5.83;89.86;94146.50;4328039;32;20327;-64
2022/01/05 08:06:01;;;;;;;0.37;0.27;;;;;;;5.85;90.60;94149.63;4338350;32;20297;-64
2022/01/05 08:08:27;;;;;;;0.23;0.17;;;;;;;5.85;89.79;94158.31;4352721;32;20281;-67
2022/01/05 08:10:53;;;;;;;0.10;0.10;;;;;;;5.98;89.90;94166.53;4340985;32;20277;-63
2022/01/05 08:13:20;;;;;;;0.97;0.20;;;;;;;5.79;89.76;94167.38;4337397;32;20281;-63
2022/01/05 08:15:47;;;;;;;0.20;0.20;;;;;;;5.93;89.96;94162.16;4329537;32;20274;-61
2022/01/05 08:18:14;;;;;;;0.20;0.20;;;;;;;6.03;90.08;94167.19;4345503;32;20270;-64
2022/01/05 08:20:40;;;;;;;0.10;0.10;;;;;;;6.08;89.09;94175.00;4341118;32;21687;-66
2022/01/05 08:23:14;;;;;;;0.20;0.20;;;;;;;6.10;88.58;94185.25;4332612;32;20360;-64
2022/01/05 08:25:41;;;;;;;0.10;0.10;;;;;;;6.19;88.41;94197.44;4326123;32;20357;-61
2022/01/05 08:28:10;;;;;;;2.73;0.20;;;;;;;6.16;87.81;94198.03;4339297;32;20368;-65
2022/01/05 08:30:38;;;;;;;0.20;0.20;;;;;;;6.14;88.72;94200.16;4338566;32;20270;-66
2022/01/05 08:33:04;;;;;;;0.20;0.10;;;;;;;5.94;88.82;94213.72;4338249;32;20273;-62
2022/01/05 08:35:31;;;;;;;0.30;0.10;;;;;;;5.93;88.56;94222.69;4307813;32;20285;-63
2022/01/05 08:37:59;;;;;;;0.30;0.30;;;;;;;5.89;88.88;94231.44;4313139;32;20273;-64
2022/01/05 08:40:26;;;;;;;0.50;0.17;;;;;;;5.89;89.42;94249.84;4353063;32;20293;-60
2022/01/05 08:42:53;;;;;;;0.20;0.20;;;;;;;5.90;89.76;94240.91;4341044;32;20297;-59
2022/01/05 08:45:41;;;;;;;0.10;0.10;;;;;;;6.07;88.97;94249.78;4343089;32;20335;-61
2022/01/05 08:48:11;;;;;;;0.20;0.20;;;;;;;5.75;89.02;94239.28;4339656;32;21776;-63
2022/01/05 08:50:37;;;;;;;0.10;0.10;;;;;;;5.76;89.33;94241.63;4358376;32;20311;-61
2022/01/05 08:53:06;;;;;;;1.07;0.10;;;;;;;5.98;88.43;94243.66;4324051;32;20265;-63
2022/01/05 08:55:48;;;;;;;1.10;0.20;;;;;;;6.07;87.61;94236.63;4318262;32;20275;-65
2022/01/05 08:58:19;;;;;;;0.20;0.10;;;;;;;6.15;87.66;94243.84;4337946;32;20270;-64
2022/01/05 09:00:45;;;;;;;0.07;0.07;;;;;;;6.31;86.80;94243.56;4330590;32;20277;-64
2022/01/05 09:03:15;;;;;;;0.17;0.17;;;;;;;6.33;85.81;94250.09;4345157;32;20272;-62
2022/01/05 09:05:42;;;;;;;0.20;0.10;;;;;;;6.50;86.56;94257.41;4343062;32;20277;-62
2022/01/05 09:08:07;;;;;;;0.10;0.10;;;;;;;6.53;85.78;94264.72;4330092;32;20320;-63
2022/01/05 09:10:33;;;;;;;0.00;0.00;;;;;;;6.22;85.68;94282.19;4309474;32;20356;-64
2022/01/05 09:13:00;;;;;;;0.10;0.10;;;;;;;6.37;87.09;94281.91;4327963;32;20187;-60
2022/01/05 09:15:34;;;;;;;0.10;0.10;;;;;;;6.53;85.29;94291.84;4329731;32;20176;-64
2022/01/05 09:18:01;;;;;;;0.37;0.17;;;;;;;6.69;86.00;94302.09;4350283;32;20392;-62
2022/01/05 09:20:26;;;;;;;0.60;0.20;;;;;;;6.57;87.47;94302.59;4312224;32;20361;-60
2022/01/05 09:22:52;;;;;;;0.10;0.10;;;;;;;6.84;84.72;94307.87;4322735;32;20308;-62
2022/01/05 09:25:21;;;;;;;0.20;0.20;;;;;;;6.85;81.78;94316.56;4331601;32;20178;-62
2022/01/05 09:27:50;;;;;;;0.30;0.30;;;;;;;6.57;82.68;94328.16;4351875;32;20287;-63
2022/01/05 09:30:18;;;;;;;0.87;0.20;;;;;;;6.84;81.06;94323.69;4353309;32;20323;-65
2022/01/05 09:32:44;;;;;;;0.37;0.30;;;;;;;6.88;80.73;94337.03;4318671;32;20287;-64
2022/01/05 09:35:14;;;;;;;0.97;0.40;;;;;;;6.69;81.16;94334.50;4332454;32;20349;-63
2022/01/05 09:37:52;;;;;;;0.50;0.50;;;;;;;6.80;80.25;94341.16;4317961;32;20186;-63
2022/01/05 09:43:04;;;;;;;1.07;0.60;;;;;;;6.75;79.19;94349.16;4333174;32;20299;-62
2022/01/05 09:45:33;;;;;;;1.13;0.70;;;;;;;6.47;79.82;94366.78;4339014;32;20261;-62
2022/01/05 09:48:40;;;;;;;0.50;0.50;;;;;;;6.53;85.53;94386.69;4345709;32;20293;-62
2022/01/05 09:51:12;;;;;;;0.50;0.50;;;;;;;6.59;78.51;94390.03;4308802;32;20277;-63
2022/01/05 09:53:38;;;;;;;0.67;0.67;;;;;;;6.48;79.05;94399.16;4333852;32;20365;-63
2022/01/05 09:56:08;;;;;;;2.57;0.93;;;;;;;6.45;79.05;94394.47;4329853;32;20289;-64
2022/01/05 09:58:42;;;;;;;0.60;0.60;;;;;;;6.57;78.91;94391.37;4325567;32;20274;-64
2022/01/05 10:01:09;;;;;;;0.87;0.87;;;;;;;6.21;77.38;94410.44;4339399;32;20350;-62
2022/01/05 10:03:35;;;;;;;0.90;0.90;;;;;;;6.53;78.90;94412.25;4308579;32;20408;-62
2022/01/05 10:06:02;;;;;;;0.80;0.80;;;;;;;6.60;78.31;94407.41;4329972;32;20317;-63
2022/01/05 10:08:28;;;;;;;0.80;0.80;;;;;;;6.37;76.02;94405.69;4336379;32;20215;-64
2022/01/05 10:10:57;;;;;;;0.90;0.90;;;;;;;6.50;78.36;94418.88;4290309;32;20278;-64
2022/01/05 10:13:25;;;;;;;1.60;1.50;;;;;;;5.88;77.49;94430.63;4319191;32;20286;-63
2022/01/05 10:15:50;;;;;;;1.33;1.30;;;;;;;6.07;79.44;94434.06;4303799;32;20317;-63
2022/01/05 10:18:18;;;;;;;0.80;0.80;;;;;;;6.08;78.64;94433.00;4309087;32;20281;-62
2022/01/05 10:21:02;;;;;;;0.93;0.93;;;;;;;5.84;77.14;94438.31;4306940;32;20196;-64
2022/01/05 10:23:41;;;;;;;0.70;0.70;;;;;;;5.59;79.44;94440.53;4313607;32;20266;-62
2022/01/05 10:26:39;;;;;;;1.87;1.10;;;;;;;5.46;79.03;94424.38;4321261;32;20353;-62
2022/01/05 10:29:18;;;;;;;1.30;1.27;;;;;;;5.92;79.06;94441.41;4330973;32;20345;-60
2022/01/05 10:32:06;;;;;;;1.07;1.07;;;;;;;5.62;79.22;94456.50;4287663;32;20304;-60
2022/01/05 10:34:34;;;;;;;1.17;1.17;;;;;;;5.93;77.96;94446.41;4359819;32;20390;-60
2022/01/05 10:37:08;;;;;;;1.50;1.40;;;;;;;5.97;77.57;94451.87;4344262;32;20269;-65
2022/01/05 10:39:41;;;;;;;1.30;1.30;;;;;;;5.77;77.98;94447.66;4312657;32;20292;-65
2022/01/05 10:42:19;;;;;;;1.10;1.10;;;;;;;6.08;77.11;94454.06;4336686;32;20350;-62
2022/01/05 10:44:51;;;;;;;1.30;1.30;;;;;;;6.03;77.44;94459.37;4338341;32;20289;-63
2022/01/05 10:47:20;;;;;;;1.67;1.13;;;;;;;5.91;76.75;94459.06;4314825;32;20316;-61
2022/01/05 10:49:49;;;;;;;1.17;1.17;;;;;;;6.05;75.02;94465.16;4340196;32;20321;-65
2022/01/05 10:52:55;;;;;;;1.20;1.10;;;;;;;6.03;74.26;94469.13;4354980;32;20272;-60
2022/01/05 10:55:23;;;;;;;1.10;1.10;;;;;;;5.97;74.45;94468.44;4355227;32;20292;-60
2022/01/05 10:58:00;;;;;;;1.60;1.00;;;;;;;6.24;73.74;94480.16;4355420;32;20287;-59
2022/01/05 11:00:44;;;;;;;1.37;1.07;;;;;;;6.06;73.54;94479.88;4344112;32;20304;-61
2022/01/05 11:03:41;;;;;;;1.00;1.00;;;;;;;5.68;72.73;94480.91;4340125;32;20343;-64
2022/01/05 11:06:19;;;;;;;1.17;1.00;;;;;;;5.82;73.60;94484.41;4274209;33;20441;-63
2022/01/05 11:08:57;;;;;;;1.43;1.20;;;;;;;5.68;73.53;94486.19;4327181;32;20288;-61
2022/01/05 11:11:42;;;;;;;1.47;0.80;;;;;;;5.60;75.05;94492.09;4309371;32;20438;-62
2022/01/05 11:14:36;;;;;;;1.50;1.27;;;;;;;5.50;74.87;94495.59;4296224;32;20373;-61
2022/01/05 11:17:05;;;;;;;1.03;1.03;;;;;;;5.43;74.92;94498.56;4313994;32;20308;-62
2022/01/05 11:19:40;;;;;;;1.20;1.10;;;;;;;5.62;74.18;94503.06;4337329;32;20296;-61
2022/01/05 11:22:16;;;;;;;1.47;0.97;;;;;;;5.47;74.06;94522.47;4343321;32;20322;-63
2022/01/05 11:24:44;;;;;;;0.73;0.70;;;;;;;5.10;74.16;94523.91;4324376;32;20277;-64
2022/01/05 11:27:24;;;;;;;0.83;0.83;;;;;;;5.35;74.88;94532.59;4325807;32;20352;-62
2022/01/05 11:29:52;;;;;;;2.43;0.97;;;;;;;5.29;74.50;94537.13;4339104;32;20296;-63
2022/01/05 11:32:23;;;;;;;0.97;0.80;;;;;;;5.07;75.54;94528.94;4336866;32;20361;-62
2022/01/05 11:34:49;;;;;;;1.10;0.80;;;;;;;5.08;76.13;94541.03;4339558;32;20272;-63
2022/01/05 11:37:20;;;;;;;2.07;0.67;;;;;;;5.20;74.62;94538.03;4346145;32;20281;-62
2022/01/05 11:39:48;;;;;;;2.33;1.80;;;;;;;4.84;74.57;94541.75;4313285;32;20296;-61
2022/01/05 11:42:23;;;;;;;1.33;0.80;;;;;;;5.18;74.99;94548.81;4322378;32;20281;-61
2022/01/05 11:44:57;;;;;;;1.67;1.20;;;;;;;4.84;74.39;94547.00;4286489;32;20293;-61
2022/01/05 11:47:35;;;;;;;0.97;0.73;;;;;;;4.82;72.64;94564.88;4350437;32;20384;-61
2022/01/05 11:50:21;;;;;;;0.70;0.70;;;;;;;4.57;70.11;94557.22;4343117;32;20326;-61
2022/01/05 11:53:04;;;;;;;2.63;0.70;;;;;;;4.47;69.80;94557.28;4324071;32;20284;-61
2022/01/05 11:55:57;;;;;;;1.70;0.80;;;;;;;4.43;71.34;94564.94;4359237;32;20268;-61